sensor_id;sensor_type;location;lat;lon;timestamp;pressure;altitude;pressure_sealevel;temperature;humidity
19674;BME280;9986;50.610;7.230;2023-07-31T00:00:51;147647.19;;;19.28;100.00
19674;BME280;9986;50.610;7.230;2023-07-31T00:06:04;147650.97;;;19.29;100.00
19674;BME280;9986;50.610;7.230;2023-07-31T00:19:24;147591.39;;;19.06;100.00
19674;BME280;9986;50.610;7.230;2023-07-31T00:24:37;147609.16;;;19.13;100.00
19674;BME280;9986;50.610;7.230;2023-07-31T00:32:30;147620.56;;;19.17;100.00
19674;BME280;9986;50.610;7.230;2023-07-31T00:37:43;147618.02;;;19.16;100.00
19674;BME280;9986;50.610;7.230;2023-07-31T00:57:11;147639.56;;;19.25;100.00
19674;BME280;9986;50.610;7.230;2023-07-31T01:02:24;147638.33;;;19.24;100.00
19674;BME280;9986;50.610;7.230;2023-07-31T01:13:09;147625.63;;;19.19;100.00
19674;BME280;9986;50.610;7.230;2023-07-31T01:29:32;147611.70;;;19.14;100.00
19674;BME280;9986;50.610;7.230;2023-07-31T01:42:47;147620.56;;;19.17;100.00
19674;BME280;9986;50.610;7.230;2023-07-31T01:53:23;147621.84;;;19.18;100.00
19674;BME280;9986;50.610;7.230;2023-07-31T01:58:36;147626.87;;;19.20;100.00
19674;BME280;9986;50.610;7.230;2023-07-31T02:11:52;147605.38;;;19.11;100.00
19674;BME280;9986;50.610;7.230;2023-07-31T02:22:24;147621.84;;;19.18;100.00
19674;BME280;9986;50.610;7.230;2023-07-31T02:27:38;147625.63;;;19.19;100.00
19674;BME280;9986;50.610;7.230;2023-07-31T02:32:51;147605.38;;;19.11;100.00
19674;BME280;9986;50.610;7.230;2023-07-31T02:46:09;147560.94;;;18.94;100.00
19674;BME280;9986;50.610;7.230;2023-07-31T02:51:22;147553.38;;;18.91;100.00
19674;BME280;9986;50.610;7.230;2023-07-31T02:56:35;147549.53;;;18.89;100.00
19674;BME280;9986;50.610;7.230;2023-07-31T03:07:25;147506.48;;;18.73;100.00
19674;BME280;9986;50.610;7.230;2023-07-31T03:34:10;147497.59;;;18.69;100.00
19674;BME280;9986;50.610;7.230;2023-07-31T03:39:19;147484.94;;;18.64;100.00
19674;BME280;9986;50.610;7.230;2023-07-31T03:55:25;147455.80;;;18.53;100.00
19674;BME280;9986;50.610;7.230;2023-07-31T04:06:03;147472.27;;;18.59;100.00
19674;BME280;9986;50.610;7.230;2023-07-31T04:14:01;147464.66;;;18.56;100.00
19674;BME280;9986;50.610;7.230;2023-07-31T04:19:12;147446.94;;;18.49;100.00
19674;BME280;9986;50.610;7.230;2023-07-31T04:24:30;147460.86;;;18.55;100.00
19674;BME280;9986;50.610;7.230;2023-07-31T04:35:08;147538.14;;;18.85;100.00
19674;BME280;9986;50.610;7.230;2023-07-31T04:48:44;147526.75;;;18.80;100.00
19674;BME280;9986;50.610;7.230;2023-07-31T05:04:56;147558.44;;;18.93;100.00
19674;BME280;9986;50.610;7.230;2023-07-31T05:10:10;147524.20;;;18.79;100.00
19674;BME280;9986;50.610;7.230;2023-07-31T05:18:01;147601.50;;;19.10;100.00
19674;BME280;9986;50.610;7.230;2023-07-31T05:23:16;147514.06;;;18.76;100.00
19674;BME280;9986;50.610;7.230;2023-07-31T05:28:25;147560.94;;;18.94;100.00
19674;BME280;9986;50.610;7.230;2023-07-31T05:36:30;147555.91;;;18.92;100.00
19674;BME280;9986;50.610;7.230;2023-07-31T06:00:30;147571.08;;;18.98;100.00
19674;BME280;9986;50.610;7.230;2023-07-31T06:05:40;147581.23;;;19.02;100.00
19674;BME280;9986;50.610;7.230;2023-07-31T06:10:53;147541.97;;;18.86;100.00
19674;BME280;9986;50.610;7.230;2023-07-31T06:16:06;147585.02;;;19.03;100.00
19674;BME280;9986;50.610;7.230;2023-07-31T06:26:42;147571.08;;;18.98;100.00
19674;BME280;9986;50.610;7.230;2023-07-31T06:31:56;147555.91;;;18.92;100.00
19674;BME280;9986;50.610;7.230;2023-07-31T06:45:03;147463.41;;;18.56;100.00
19674;BME280;9986;50.610;7.230;2023-07-31T06:50:18;147467.19;;;18.57;100.00
19674;BME280;9986;50.610;7.230;2023-07-31T06:55:29;147446.94;;;18.49;100.00
19674;BME280;9986;50.610;7.230;2023-07-31T07:06:19;147495.05;;;18.68;100.00
19674;BME280;9986;50.610;7.230;2023-07-31T07:11:58;147529.28;;;18.81;100.00
19674;BME280;9986;50.610;7.230;2023-07-31T07:28:19;147619.31;;;19.17;100.00
19674;BME280;9986;50.610;7.230;2023-07-31T07:39:03;147676.36;;;19.39;100.00
19674;BME280;9986;50.610;7.230;2023-07-31T08:03:24;147524.20;;;18.79;100.00
19674;BME280;9986;50.610;7.230;2023-07-31T08:11:27;147492.56;;;18.67;100.00
19674;BME280;9986;50.610;7.230;2023-07-31T08:16:40;147439.33;;;18.46;100.00
19674;BME280;9986;50.610;7.230;2023-07-31T08:21:53;121729.72;;;18.40;100.00
19674;BME280;9986;50.610;7.230;2023-07-31T08:32:39;64129.83;;;18.40;100.00
19674;BME280;9986;50.610;7.230;2023-07-31T08:37:58;55509.27;;;18.27;100.00
19674;BME280;9986;50.610;7.230;2023-07-31T08:45:52;58865.52;;;18.28;100.00
19674;BME280;9986;50.610;7.230;2023-07-31T08:56:36;69194.96;;;18.33;100.00
19674;BME280;9986;50.610;7.230;2023-07-31T09:01:48;40545.20;;;18.30;100.00
19674;BME280;9986;50.610;7.230;2023-07-31T09:09:48;38030.62;;;18.32;100.00
19674;BME280;9986;50.610;7.230;2023-07-31T09:17:48;42061.50;;;18.38;100.00
19674;BME280;9986;50.610;7.230;2023-07-31T09:23:08;32838.86;;;18.36;100.00
19674;BME280;9986;50.610;7.230;2023-07-31T09:47:30;45920.23;;;18.32;100.00
19674;BME280;9986;50.610;7.230;2023-07-31T09:55:47;32817.44;;;18.01;100.00
19674;BME280;9986;50.610;7.230;2023-07-31T10:03:47;23793.54;;;18.01;100.00
19674;BME280;9986;50.610;7.230;2023-07-31T10:09:00;23633.24;;;18.15;100.00
19674;BME280;9986;50.610;7.230;2023-07-31T10:14:15;21628.33;;;18.09;100.00
19674;BME280;9986;50.610;7.230;2023-07-31T10:19:37;29991.25;;;18.31;100.00
19674;BME280;9986;50.610;7.230;2023-07-31T10:27:36;50467.05;;;18.38;100.00
19674;BME280;9986;50.610;7.230;2023-07-31T10:38:25;147559.69;;;18.93;100.00
19674;BME280;9986;50.610;7.230;2023-07-31T10:46:21;147658.59;;;19.32;100.00
19674;BME280;9986;50.610;7.230;2023-07-31T10:54:15;147841.25;;;20.04;100.00
19674;BME280;9986;50.610;7.230;2023-07-31T11:02:24;147883.09;;;20.20;100.00
19674;BME280;9986;50.610;7.230;2023-07-31T11:07:51;147951.61;;;20.47;100.00
19674;BME280;9986;50.610;7.230;2023-07-31T11:21:25;148055.72;;;20.88;100.00
19674;BME280;9986;50.610;7.230;2023-07-31T11:29:25;148177.59;;;21.36;100.00
19674;BME280;9986;50.610;7.230;2023-07-31T11:54:03;148201.72;;;21.45;100.00
19674;BME280;9986;50.610;7.230;2023-07-31T11:59:16;148316.06;;;21.90;100.00
19674;BME280;9986;50.610;7.230;2023-07-31T12:07:07;148468.63;;;22.50;100.00
19674;BME280;9986;50.610;7.230;2023-07-31T12:23:14;148766.25;;;23.66;100.00
19674;BME280;9986;50.610;7.230;2023-07-31T12:36:29;148754.81;;;23.62;100.00
19674;BME280;9986;50.610;7.230;2023-07-31T12:49:50;148569.03;;;22.89;100.00
19674;BME280;9986;50.610;7.230;2023-07-31T12:55:04;148725.53;;;23.50;100.00
19674;BME280;9986;50.610;7.230;2023-07-31T13:00:17;148796.83;;;23.78;100.00
19674;BME280;9986;50.610;7.230;2023-07-31T13:10:53;148565.25;;;22.87;100.00
19674;BME280;9986;50.610;7.230;2023-07-31T13:16:06;148614.88;;;23.07;100.00
19674;BME280;9986;50.610;7.230;2023-07-31T13:23:57;148463.53;;;22.48;100.00
19674;BME280;9986;50.610;7.230;2023-07-31T13:31:51;148359.28;;;22.07;100.00
19674;BME280;9986;50.610;7.230;2023-07-31T13:39:48;148434.28;;;22.36;100.00
19674;BME280;9986;50.610;7.230;2023-07-31T13:50:21;148569.03;;;22.89;100.00
19674;BME280;9986;50.610;7.230;2023-07-31T14:11:45;148485.16;;;22.56;100.00
19674;BME280;9986;50.610;7.230;2023-07-31T14:16:58;148480.06;;;22.54;100.00
19674;BME280;9986;50.610;7.230;2023-07-31T14:22:12;148304.64;;;21.85;100.00
19674;BME280;9986;50.610;7.230;2023-07-31T14:38:20;148181.38;;;21.37;100.00
19674;BME280;9986;50.610;7.230;2023-07-31T14:48:54;148169.95;;;21.33;100.00
19674;BME280;9986;50.610;7.230;2023-07-31T14:54:12;148147.13;;;21.24;100.00
19674;BME280;9986;50.610;7.230;2023-07-31T14:59:25;148225.88;;;21.55;100.00
19674;BME280;9986;50.610;7.230;2023-07-31T15:04:39;148136.94;;;21.20;100.00
19674;BME280;9986;50.610;7.230;2023-07-31T15:12:30;148116.66;;;21.12;100.00
19674;BME280;9986;50.610;7.230;2023-07-31T15:17:44;148060.77;;;20.90;100.00
19674;BME280;9986;50.610;7.230;2023-07-31T15:42:04;148152.20;;;21.26;100.00
19674;BME280;9986;50.610;7.230;2023-07-31T15:55:17;148161.09;;;21.29;100.00
19674;BME280;9986;50.610;7.230;2023-07-31T16:03:16;147999.81;;;20.66;100.00
19674;BME280;9986;50.610;7.230;2023-07-31T16:08:35;148053.19;;;20.87;100.00
19674;BME280;9986;50.610;7.230;2023-07-31T16:16:38;147983.31;;;20.60;100.00
19674;BME280;9986;50.610;7.230;2023-07-31T16:27:16;148016.30;;;20.72;100.00
19674;BME280;9986;50.610;7.230;2023-07-31T16:32:32;147908.45;;;20.30;100.00
19674;BME280;9986;50.610;7.230;2023-07-31T16:40:23;147909.70;;;20.31;100.00
19674;BME280;9986;50.610;7.230;2023-07-31T16:48:14;147867.84;;;20.14;100.00
19674;BME280;9986;50.610;7.230;2023-07-31T16:53:27;147833.63;;;20.01;100.00
19674;BME280;9986;50.610;7.230;2023-07-31T17:09:38;147791.73;;;19.84;100.00
19674;BME280;9986;50.610;7.230;2023-07-31T17:14:51;147809.47;;;19.91;100.00
19674;BME280;9986;50.610;7.230;2023-07-31T17:20:01;147782.83;;;19.81;100.00
19674;BME280;9986;50.610;7.230;2023-07-31T17:25:18;147814.55;;;19.93;100.00
19674;BME280;9986;50.610;7.230;2023-07-31T17:33:14;147756.22;;;19.71;100.00
19674;BME280;9986;50.610;7.230;2023-07-31T17:46:40;147735.91;;;19.63;100.00
19674;BME280;9986;50.610;7.230;2023-07-31T17:54:45;147711.81;;;19.53;100.00
19674;BME280;9986;50.610;7.230;2023-07-31T17:59:56;147725.81;;;19.59;100.00
19674;BME280;9986;50.610;7.230;2023-07-31T18:15:53;147720.72;;;19.57;100.00
19674;BME280;9986;50.610;7.230;2023-07-31T18:21:12;147702.94;;;19.50;100.00
19674;BME280;9986;50.610;7.230;2023-07-31T18:29:03;147735.91;;;19.63;100.00
19674;BME280;9986;50.610;7.230;2023-07-31T18:34:16;147677.61;;;19.40;100.00
19674;BME280;9986;50.610;7.230;2023-07-31T18:42:13;147582.47;;;19.02;100.00
19674;BME280;9986;50.610;7.230;2023-07-31T18:50:17;147502.66;;;18.71;100.00
19674;BME280;9986;50.610;7.230;2023-07-31T19:20:41;95546.90;;;18.46;100.00
19674;BME280;9986;50.610;7.230;2023-07-31T19:36:33;100499.37;;;18.47;100.00
19674;BME280;9986;50.610;7.230;2023-07-31T19:41:47;60077.91;;;18.42;100.00
19674;BME280;9986;50.610;7.230;2023-07-31T19:47:03;47264.61;;;18.31;100.00
19674;BME280;9986;50.610;7.230;2023-07-31T19:57:48;28149.61;;;18.27;100.00
19674;BME280;9986;50.610;7.230;2023-07-31T20:08:26;31497.33;;;18.32;100.00
19674;BME280;9986;50.610;7.230;2023-07-31T20:13:44;49125.26;;;18.43;100.00
19674;BME280;9986;50.610;7.230;2023-07-31T20:33:05;14958.98;;;17.95;100.00
19674;BME280;9986;50.610;7.230;2023-07-31T20:43:43;13630.81;;;18.05;100.00
19674;BME280;9986;50.610;7.230;2023-07-31T21:31:10;25967.97;;;18.09;100.00
19674;BME280;9986;50.610;7.230;2023-07-31T21:39:08;16464.68;;;18.17;100.00
19674;BME280;9986;50.610;7.230;2023-07-31T21:44:22;6316.24;;;17.94;100.00
19674;BME280;9986;50.610;7.230;2023-07-31T21:54:58;5653.80;;;18.02;100.00
19674;BME280;9986;50.610;7.230;2023-07-31T22:21:35;-5281.83;;;17.99;100.00
19674;BME280;9986;50.610;7.230;2023-07-31T22:29:28;-2137.31;;;18.04;100.00
19674;BME280;9986;50.610;7.230;2023-07-31T22:45:12;181.43;;;18.02;100.00
19674;BME280;9986;50.610;7.230;2023-07-31T23:01:05;-7595.98;;;17.81;100.00
19674;BME280;9986;50.610;7.230;2023-07-31T23:27:50;4991.82;;;18.13;100.00
19674;BME280;9986;50.610;7.230;2023-07-31T23:33:04;10641.62;;;18.21;100.00
19674;BME280;9986;50.610;7.230;2023-07-31T23:38:17;10475.87;;;18.23;100.00
19674;BME280;9986;50.610;7.230;2023-07-31T23:43:30;8314.42;;;18.20;100.00
19674;BME280;9986;50.610;7.230;2023-07-31T23:48:43;5989.38;;;18.22;100.00
